createdAt,value
2023-05-22T05:26:07.867Z,15.20
2023-05-22T05:29:10.743Z,15.40
2023-05-22T05:35:17.141Z,15.60
2023-05-22T05:38:21.430Z,15.70
2023-05-22T05:41:24.235Z,15.80
2023-05-22T05:44:27.080Z,15.80
2023-05-22T05:47:30.176Z,15.90
2023-05-22T05:50:32.997Z,15.90
2023-05-22T05:53:37.613Z,16.00
2023-05-22T05:56:40.930Z,16.10
2023-05-22T05:59:43.767Z,16.20
2023-05-22T06:02:50.354Z,16.30
2023-05-22T06:05:54.276Z,16.40
2023-05-22T06:52:05.423Z,18.20
2023-05-22T10:52:25.146Z,25.40
2023-05-22T10:58:36.427Z,25.60
2023-05-22T11:01:40.774Z,25.50
2023-05-22T11:50:59.859Z,27.00
2023-05-22T11:54:02.902Z,27.10
2023-05-22T12:21:41.977Z,27.90
2023-05-22T12:55:23.861Z,28.90
2023-05-22T14:05:49.715Z,29.30
2023-05-22T14:08:52.533Z,29.30
2023-05-22T14:11:55.994Z,29.30
2023-05-22T14:18:02.127Z,29.30
2023-05-22T14:24:09.788Z,29.10
2023-05-22T14:27:12.603Z,28.90
2023-05-22T14:48:36.455Z,28.70
2023-05-22T14:54:44.332Z,28.70
2023-05-22T15:00:50.580Z,28.50
2023-05-22T15:03:53.405Z,28.50
2023-05-22T15:06:57.541Z,28.30
2023-05-22T15:10:00.834Z,28.20
2023-05-22T15:13:03.650Z,28.20
2023-05-22T15:19:10.250Z,28.20
2023-05-22T15:22:19.255Z,28.20
2023-05-22T15:25:22.998Z,28.00
2023-05-22T15:28:26.915Z,27.90
2023-05-22T15:31:30.287Z,27.80
2023-05-22T15:34:33.128Z,27.80
2023-05-22T15:37:38.305Z,27.70
2023-05-22T15:40:41.869Z,27.70
2023-05-22T15:46:47.924Z,27.50
2023-05-22T15:49:50.877Z,27.50
2023-05-22T15:52:55.097Z,27.40
2023-05-22T15:55:58.434Z,27.40
2023-05-22T15:59:01.340Z,27.30
2023-05-22T16:02:04.456Z,27.40
2023-05-22T16:05:07.511Z,27.30
2023-05-22T16:08:11.696Z,27.30
2023-05-22T16:11:14.590Z,27.30
2023-05-22T16:14:17.531Z,27.20
2023-05-22T16:23:28.459Z,26.90
2023-05-22T16:26:31.273Z,26.90
2023-05-22T16:32:37.399Z,26.90
2023-05-22T16:35:40.670Z,26.80
2023-05-22T16:38:45.163Z,26.80
2023-05-22T16:41:47.972Z,26.70
2023-05-22T16:44:50.843Z,26.70
2023-05-22T16:47:55.951Z,26.60
2023-05-22T16:50:59.041Z,26.60
2023-05-22T16:54:03.308Z,26.60
2023-05-22T17:00:11.840Z,26.50
2023-05-22T17:03:14.993Z,26.50
2023-05-22T17:06:20.871Z,26.40
2023-05-22T17:09:25.706Z,26.40
2023-05-22T17:12:28.539Z,26.30
2023-05-22T17:15:31.417Z,26.20
2023-05-22T17:18:34.265Z,26.20
2023-05-22T17:21:37.964Z,26.20
2023-05-22T17:24:42.339Z,26.10
2023-05-22T17:27:45.389Z,26.00
2023-05-22T17:30:48.352Z,26.00
2023-05-22T17:33:51.275Z,25.90
2023-05-22T17:36:54.083Z,25.80
2023-05-22T17:39:58.278Z,25.80
2023-05-22T17:43:02.426Z,25.70
2023-05-22T17:46:05.748Z,25.70
2023-05-22T17:49:08.625Z,25.50
2023-05-22T17:55:17.610Z,25.50
2023-05-22T17:58:21.098Z,25.50
2023-05-22T18:01:24.454Z,25.40
2023-05-22T18:10:35.808Z,25.20
2023-05-22T18:13:38.705Z,25.10
2023-05-22T18:16:41.570Z,25.00
2023-05-22T18:19:44.429Z,24.80
2023-05-22T18:22:47.312Z,24.70
2023-05-22T18:28:54.993Z,24.50
2023-05-22T18:31:57.857Z,24.30
2023-05-22T18:35:03.135Z,24.30
2023-05-22T18:38:06.411Z,24.20
2023-05-22T18:41:10.712Z,24.20
2023-05-22T18:44:13.992Z,24.10
2023-05-22T18:47:16.889Z,24.00
2023-05-22T18:53:27.346Z,23.70
2023-05-22T18:56:32.284Z,23.60
2023-05-22T18:59:35.156Z,23.40
2023-05-22T19:02:38.087Z,23.30
2023-05-22T19:05:41.112Z,23.20
2023-05-22T19:08:43.938Z,23.10
2023-05-22T19:11:48.668Z,23.00
2023-05-22T19:14:52.485Z,22.90
2023-05-22T19:20:58.938Z,22.70
2023-05-22T19:24:01.786Z,22.70
2023-05-22T19:27:06.390Z,22.60
2023-05-22T19:30:10.077Z,22.50
2023-05-22T19:33:14.760Z,22.40
2023-05-22T19:36:17.672Z,22.30
2023-05-22T19:39:20.492Z,22.30
2023-05-22T19:42:24.657Z,22.20
2023-05-22T19:45:27.632Z,22.10
2023-05-22T19:48:33.206Z,22.10
2023-05-22T19:51:37.207Z,22.10
2023-05-22T19:54:40.360Z,22.10
2023-05-22T19:57:45.423Z,22.10
2023-05-22T20:00:48.642Z,22.10
2023-05-22T20:03:51.888Z,22.10
2023-05-22T20:06:55.104Z,22.10
2023-05-22T20:09:57.951Z,22.10
2023-05-22T20:13:02.500Z,22.10
2023-05-22T20:16:11.738Z,22.00
2023-05-22T20:19:15.237Z,21.90
2023-05-22T20:22:18.177Z,21.80
2023-05-22T20:25:21.207Z,21.70
2023-05-22T20:28:26.242Z,21.60
2023-05-22T20:31:29.104Z,21.50
2023-05-22T20:34:32.046Z,21.40
2023-05-22T20:37:35.640Z,21.40
2023-05-22T20:40:38.446Z,21.30
2023-05-22T20:43:43.292Z,21.30
2023-05-22T20:46:46.443Z,21.30
2023-05-22T20:49:49.741Z,21.20
2023-05-22T20:52:52.770Z,21.10
2023-05-22T20:55:57.437Z,21.00
2023-05-22T20:59:01.664Z,20.90
2023-05-22T21:02:04.865Z,20.80
2023-05-22T21:05:08.273Z,20.60
2023-05-22T21:08:11.136Z,20.60
2023-05-22T21:11:14.035Z,20.50
2023-05-22T21:14:18.218Z,20.40
2023-05-22T21:17:21.134Z,20.40
2023-05-22T21:20:23.988Z,20.30
2023-05-22T21:23:26.947Z,20.20
2023-05-22T21:26:29.762Z,20.10
2023-05-22T21:29:34.138Z,20.10
2023-05-22T21:32:37.012Z,20.00
2023-05-22T21:35:39.843Z,20.00
2023-05-22T21:38:42.837Z,20.00
2023-05-22T21:41:46.054Z,19.90
2023-05-22T21:44:51.305Z,19.90
2023-05-22T21:47:54.193Z,19.80
2023-05-22T21:50:57.112Z,19.70
2023-05-22T21:54:00.012Z,19.70
2023-05-22T21:57:02.950Z,19.70
2023-05-22T22:00:08.448Z,19.60
2023-05-22T22:03:12.125Z,19.60
2023-05-22T22:06:15.054Z,19.60
2023-05-22T22:09:17.904Z,19.50
2023-05-22T22:12:20.913Z,19.50
2023-05-22T22:15:25.284Z,19.50
2023-05-22T22:18:28.105Z,19.40
2023-05-22T22:21:31.580Z,19.40
2023-05-22T22:24:34.441Z,19.30
2023-05-22T22:27:37.816Z,19.30
2023-05-22T22:30:42.111Z,19.30
2023-05-22T22:33:45.029Z,19.30
2023-05-22T22:36:48.310Z,19.30
2023-05-22T22:39:51.142Z,19.40
2023-05-22T22:42:54.090Z,19.40
2023-05-22T22:45:58.306Z,19.50
2023-05-22T22:49:01.813Z,19.60
2023-05-22T22:52:05.008Z,19.60
2023-05-22T22:55:11.041Z,19.60
2023-05-22T22:58:14.087Z,19.60
2023-05-22T23:01:18.345Z,19.60
2023-05-22T23:04:21.301Z,19.60
2023-05-22T23:07:24.208Z,19.50
2023-05-22T23:10:27.170Z,19.50
2023-05-22T23:13:30.294Z,19.40
2023-05-22T23:16:36.755Z,19.30
2023-05-22T23:19:39.585Z,19.20
2023-05-22T23:22:42.435Z,19.20
2023-05-22T23:25:45.509Z,19.10
2023-05-22T23:28:48.328Z,19.10
2023-05-22T23:31:52.694Z,19.10
2023-05-22T23:34:55.762Z,19.00
2023-05-22T23:37:58.590Z,19.00
2023-05-22T23:41:01.423Z,18.90
2023-05-22T23:44:04.295Z,18.80
2023-05-22T23:47:08.689Z,18.80
2023-05-22T23:50:12.334Z,18.80
2023-05-22T23:53:15.164Z,18.70
2023-05-22T23:56:17.969Z,18.80
2023-05-22T23:59:20.932Z,18.80
